createdAt,value
2023-04-16T00:01:33.542Z,98.79
2023-04-16T00:06:38.806Z,98.61
2023-04-16T00:11:44.294Z,98.77
2023-04-16T00:16:49.651Z,98.96
2023-04-16T00:21:55.474Z,98.87
2023-04-16T00:27:01.573Z,98.99
2023-04-16T00:32:07.629Z,98.90
2023-04-16T00:37:12.918Z,98.96
2023-04-16T00:42:18.381Z,99.01
2023-04-16T00:47:24.139Z,98.95
2023-04-16T00:52:31.382Z,99.18
2023-04-16T00:57:36.628Z,99.02
2023-04-16T01:02:42.475Z,99.12
2023-04-16T01:07:47.902Z,98.72
2023-04-16T01:12:53.335Z,99.13
2023-04-16T01:17:58.671Z,99.02
2023-04-16T01:23:04.172Z,99.19
2023-04-16T01:28:09.526Z,99.57
2023-04-16T01:33:15.802Z,99.07
2023-04-16T01:38:21.070Z,99.23
2023-04-16T01:43:26.586Z,99.20
2023-04-16T01:48:31.945Z,99.54
2023-04-16T01:53:37.432Z,99.54
2023-04-16T01:58:42.918Z,99.17
2023-04-16T02:03:48.864Z,99.48
2023-04-16T02:08:54.379Z,99.78
2023-04-16T02:13:59.709Z,99.65
2023-04-16T02:19:04.972Z,99.60
2023-04-16T02:24:10.431Z,99.63
2023-04-16T02:29:16.537Z,99.54
2023-04-16T02:34:21.948Z,99.33
2023-04-16T02:39:27.312Z,99.43
2023-04-16T02:44:32.670Z,99.25
2023-04-16T02:49:37.967Z,99.66
2023-04-16T02:54:43.481Z,99.45
2023-04-16T02:59:48.903Z,99.48
2023-04-16T03:04:54.436Z,99.74
2023-04-16T03:09:59.732Z,99.60
2023-04-16T03:15:06.273Z,99.63
2023-04-16T03:20:12.421Z,99.50
2023-04-16T03:25:17.968Z,99.53
2023-04-16T03:30:23.224Z,99.55
2023-04-16T03:35:28.661Z,99.48
2023-04-16T03:40:33.949Z,99.31
2023-04-16T03:45:45.344Z,99.53
2023-04-16T03:50:50.860Z,99.19
2023-04-16T03:55:56.297Z,99.31
2023-04-16T04:01:01.588Z,99.39
2023-04-16T04:06:09.658Z,99.31
2023-04-16T04:11:15.009Z,99.70
2023-04-16T04:16:22.898Z,99.73
2023-04-16T04:21:28.964Z,99.69
2023-04-16T04:26:34.446Z,99.65
2023-04-16T04:31:39.818Z,99.36
2023-04-16T04:36:45.203Z,99.51
2023-04-16T04:41:50.622Z,99.76
2023-04-16T04:46:56.342Z,99.59
2023-04-16T04:52:02.078Z,99.36
2023-04-16T04:57:07.419Z,99.54
2023-04-16T05:02:13.171Z,99.46
2023-04-16T05:07:18.628Z,99.34
2023-04-16T05:12:24.068Z,99.66
2023-04-16T05:17:29.716Z,99.80
2023-04-16T05:22:35.225Z,99.68
2023-04-16T05:27:40.659Z,99.86
2023-04-16T05:32:46.128Z,99.79
2023-04-16T05:37:51.539Z,99.76
2023-04-16T05:42:56.905Z,99.53
2023-04-16T05:48:02.450Z,99.91
2023-04-16T05:53:09.048Z,99.90
2023-04-16T05:58:14.436Z,99.85
2023-04-16T06:03:19.831Z,99.73
2023-04-16T06:08:26.218Z,99.50
2023-04-16T06:13:31.510Z,99.65
2023-04-16T06:18:36.846Z,99.79
2023-04-16T06:23:42.111Z,100.00
2023-04-16T06:28:47.468Z,99.94
2023-04-16T06:33:52.736Z,99.69
2023-04-16T06:38:58.109Z,99.94
2023-04-16T06:44:03.430Z,99.62
2023-04-16T06:49:09.023Z,99.63
2023-04-16T06:54:14.621Z,100.00
2023-04-16T06:59:19.938Z,99.90
2023-04-16T07:04:26.007Z,99.85
2023-04-16T07:09:31.481Z,99.68
2023-04-16T07:14:36.922Z,99.37
2023-04-16T07:19:42.233Z,99.34
2023-04-16T07:24:47.470Z,99.45
2023-04-16T07:29:52.852Z,99.45
2023-04-16T07:34:58.149Z,99.55
2023-04-16T07:40:05.247Z,99.60
2023-04-16T07:45:12.593Z,99.76
2023-04-16T07:50:19.466Z,99.53
2023-04-16T07:55:25.033Z,99.96
2023-04-16T08:00:30.851Z,100.00
2023-04-16T08:05:36.106Z,99.86
2023-04-16T08:10:41.445Z,100.00
2023-04-16T08:15:46.836Z,99.99
2023-04-16T08:20:52.350Z,99.96
2023-04-16T08:25:57.678Z,99.85
2023-04-16T08:31:03.257Z,100.00
2023-04-16T08:36:09.058Z,100.00
2023-04-16T08:41:15.798Z,99.92
2023-04-16T08:46:24.996Z,99.94
2023-04-16T08:51:34.216Z,99.98
2023-04-16T08:56:43.047Z,100.00
2023-04-16T09:01:49.430Z,100.00
2023-04-16T09:06:56.610Z,100.00
2023-04-16T09:12:02.470Z,100.00
2023-04-16T09:17:08.997Z,99.85
2023-04-16T09:22:14.411Z,99.96
2023-04-16T09:27:19.851Z,100.00
2023-04-16T09:32:28.707Z,99.75
2023-04-16T09:37:34.052Z,99.93
2023-04-16T09:42:39.378Z,99.87
2023-04-16T09:47:45.896Z,99.84
2023-04-16T09:52:51.903Z,99.60
2023-04-16T09:58:02.293Z,99.84
2023-04-16T10:03:07.932Z,99.10
2023-04-16T10:08:17.267Z,99.06
2023-04-16T10:13:22.718Z,99.08
2023-04-16T10:18:29.307Z,99.13
2023-04-16T10:23:35.538Z,99.15
2023-04-16T10:28:41.942Z,99.17
2023-04-16T10:33:47.930Z,98.57
2023-04-16T10:38:57.546Z,98.92
2023-04-16T10:44:10.086Z,98.81
2023-04-16T10:49:17.894Z,98.22
2023-04-16T10:54:26.466Z,98.04
2023-04-16T10:59:34.969Z,97.49
2023-04-16T11:04:42.806Z,97.29
2023-04-16T11:09:52.378Z,96.86
2023-04-16T11:15:00.944Z,96.82
2023-04-16T11:20:19.089Z,95.93
2023-04-16T11:25:26.994Z,96.18
2023-04-16T11:30:34.234Z,96.44
2023-04-16T11:35:39.950Z,96.23
2023-04-16T11:40:45.331Z,96.08
2023-04-16T11:45:59.880Z,95.95
2023-04-16T11:51:05.446Z,96.03
2023-04-16T11:56:10.768Z,95.70
2023-04-16T12:01:21.641Z,95.49
2023-04-16T12:06:27.261Z,95.37
2023-04-16T12:11:42.591Z,95.20
2023-04-16T12:16:47.942Z,95.43
2023-04-16T12:21:54.872Z,95.48
2023-04-16T12:27:03.297Z,95.18
2023-04-16T12:32:23.454Z,95.08
2023-04-16T12:37:28.762Z,95.02
2023-04-16T12:42:37.699Z,95.02
2023-04-16T12:47:43.431Z,95.08
2023-04-16T12:52:48.955Z,95.00
2023-04-16T12:57:54.639Z,94.93
2023-04-16T13:03:00.414Z,94.62
2023-04-16T13:08:06.218Z,95.04
2023-04-16T13:13:11.522Z,94.96
2023-04-16T13:18:16.850Z,94.66
2023-04-16T13:23:22.293Z,94.57
2023-04-16T13:28:27.716Z,94.09
2023-04-16T13:33:33.330Z,93.97
2023-04-16T13:38:39.493Z,93.82
2023-04-16T13:43:44.895Z,93.38
2023-04-16T13:48:50.687Z,93.44
2023-04-16T13:53:56.573Z,93.18
2023-04-16T13:59:01.990Z,93.09
2023-04-16T14:04:08.442Z,92.82
2023-04-16T14:09:13.694Z,92.70
2023-04-16T14:14:19.161Z,92.68
2023-04-16T14:19:24.679Z,92.44
2023-04-16T14:24:30.048Z,92.68
2023-04-16T14:29:36.485Z,92.18
2023-04-16T14:34:41.861Z,92.07
2023-04-16T14:39:47.367Z,92.09
2023-04-16T14:44:52.633Z,91.94
2023-04-16T14:50:00.582Z,91.82
2023-04-16T14:55:06.884Z,91.61
2023-04-16T15:00:17.165Z,91.56
2023-04-16T15:05:22.437Z,91.63
2023-04-16T15:10:27.904Z,91.91
2023-04-16T15:15:33.505Z,91.88
2023-04-16T15:20:38.901Z,91.79
2023-04-16T15:25:44.221Z,92.18
2023-04-16T15:30:49.932Z,91.61
2023-04-16T15:35:55.224Z,91.60
2023-04-16T15:41:01.462Z,91.77
2023-04-16T15:46:08.648Z,91.60
2023-04-16T15:51:14.300Z,91.45
2023-04-16T15:56:19.620Z,91.57
2023-04-16T16:01:25.177Z,91.54
2023-04-16T16:06:31.572Z,91.42
2023-04-16T16:11:38.376Z,91.17
2023-04-16T16:16:43.906Z,91.38
2023-04-16T16:21:49.499Z,91.01
2023-04-16T16:26:54.786Z,91.00
2023-04-16T16:32:00.402Z,90.98
2023-04-16T16:37:06.396Z,90.93
2023-04-16T16:42:11.970Z,90.98
2023-04-16T16:47:17.270Z,91.09
2023-04-16T16:52:25.054Z,91.13
2023-04-16T16:57:30.365Z,91.15
2023-04-16T17:02:35.779Z,91.45
2023-04-16T17:07:41.448Z,91.42
2023-04-16T17:12:47.325Z,91.46
2023-04-16T17:17:52.896Z,90.95
2023-04-16T17:22:59.434Z,90.81
2023-04-16T17:28:05.151Z,91.06
2023-04-16T17:33:10.494Z,91.11
2023-04-16T17:38:16.123Z,91.39
2023-04-16T17:43:21.422Z,91.34
2023-04-16T17:48:26.898Z,91.40
2023-04-16T17:53:32.354Z,91.45
2023-04-16T17:58:37.790Z,91.46
2023-04-16T18:03:44.393Z,91.49
2023-04-16T18:08:49.853Z,91.25
2023-04-16T18:13:55.331Z,91.52
2023-04-16T18:19:00.616Z,91.24
2023-04-16T18:24:06.800Z,91.67
2023-04-16T18:29:13.229Z,91.34
2023-04-16T18:34:18.981Z,91.85
2023-04-16T18:39:24.422Z,91.88
2023-04-16T18:44:29.806Z,91.67
2023-04-16T18:49:35.329Z,92.16
2023-04-16T18:54:43.844Z,92.13
2023-04-16T18:59:49.503Z,91.69
2023-04-16T19:04:54.934Z,91.91
2023-04-16T19:10:02.480Z,92.03
2023-04-16T19:15:09.253Z,92.04
2023-04-16T19:20:15.333Z,92.28
2023-04-16T19:25:20.791Z,92.52
2023-04-16T19:30:26.445Z,92.42
2023-04-16T19:35:31.820Z,92.61
2023-04-16T19:40:37.890Z,92.49
2023-04-16T19:45:46.854Z,92.29
2023-04-16T19:50:52.520Z,92.96
2023-04-16T19:55:57.844Z,92.50
2023-04-16T20:01:07.954Z,92.56
2023-04-16T20:06:13.485Z,92.49
2023-04-16T20:11:18.883Z,92.32
2023-04-16T20:16:24.828Z,92.44
2023-04-16T20:21:31.658Z,91.97
2023-04-16T20:26:36.988Z,91.74
2023-04-16T20:31:44.317Z,92.06
2023-04-16T20:36:49.557Z,92.05
2023-04-16T20:41:57.520Z,92.38
2023-04-16T20:47:02.837Z,92.50
2023-04-16T20:52:08.246Z,92.08
2023-04-16T20:57:13.554Z,92.33
2023-04-16T21:02:20.678Z,92.33
2023-04-16T21:07:26.229Z,92.80
2023-04-16T21:12:31.488Z,92.78
2023-04-16T21:17:37.139Z,92.52
2023-04-16T21:22:42.529Z,92.79
2023-04-16T21:27:47.793Z,92.88
2023-04-16T21:32:53.434Z,93.05
2023-04-16T21:37:58.700Z,93.10
2023-04-16T21:43:04.194Z,92.87
2023-04-16T21:48:09.593Z,92.85
2023-04-16T21:53:15.100Z,92.85
2023-04-16T21:58:20.419Z,93.26
2023-04-16T22:03:27.601Z,93.16
2023-04-16T22:08:33.162Z,93.02
2023-04-16T22:13:42.059Z,93.06
2023-04-16T22:18:47.927Z,93.00
2023-04-16T22:23:53.362Z,93.44
2023-04-16T22:28:58.610Z,93.35
2023-04-16T22:34:03.944Z,93.58
2023-04-16T22:39:09.184Z,93.66
2023-04-16T22:44:14.862Z,93.57
2023-04-16T22:49:20.262Z,93.46
2023-04-16T22:54:29.445Z,93.70
2023-04-16T22:59:34.742Z,93.83
2023-04-16T23:04:40.066Z,93.56
2023-04-16T23:09:45.414Z,93.75
2023-04-16T23:14:51.307Z,93.90
2023-04-16T23:19:56.784Z,93.69
2023-04-16T23:25:02.125Z,93.73
2023-04-16T23:30:10.590Z,93.91
2023-04-16T23:35:22.645Z,93.97
2023-04-16T23:40:26.558Z,93.60
2023-04-16T23:45:31.934Z,93.76
2023-04-16T23:50:37.220Z,93.98
2023-04-16T23:55:42.694Z,93.48
